Time;durP1;ratioP1;P1;durP2;ratioP2;P2;SDS_P1;SDS_P2;PMS_P1;PMS_P2;Temp;Humidity;BMP_temperature;BMP_pressure;BME280_temperature;BME280_humidity;BME280_pressure;Samples;Min_cycle;Max_cycle;Signal;HPM_P1;HPM_P2
2022/09/30 00:03:43;;;;;;;;;;;18.60;99.90;;;;;;5063305;28;19908;-80
2022/09/30 00:06:39;;;;;;;;;;;;;;;;;;;;;
2022/09/30 00:09:42;;;;;;;;;;;18.50;99.90;;;;;;5108092;28;19962;-80
2022/09/30 00:25:03;;;;;;;;;;;17.10;99.90;;;;;;4952782;29;20278;-81
2022/09/30 00:27:29;;;;;;;;;;;16.60;99.90;;;;;;4926355;29;19926;-81
2022/09/30 00:29:54;;;;;;;;;;;16.00;99.90;;;;;;4959405;28;19965;-82
2022/09/30 00:32:20;;;;;;;;;;;15.20;99.90;;;;;;4981716;28;20058;-82
2022/09/30 00:34:54;;;;;;;;;;;14.70;99.90;;;;;;5055174;28;19939;-83
2022/09/30 00:37:23;;;;;;;;;;;14.40;99.90;;;;;;5101721;28;19912;-81
2022/09/30 00:39:52;;;;;;;;;;;14.30;99.90;;;;;;5105055;28;19937;-81
2022/09/30 00:42:25;;;;;;;;;;;14.20;99.90;;;;;;5108408;28;19933;-81
2022/09/30 00:45:16;;;;;;;;;;;14.10;99.90;;;;;;5105183;28;19999;-81
2022/09/30 00:47:48;;;;;;;;;;;14.10;99.90;;;;;;5084160;28;20047;-80
2022/09/30 00:50:32;;;;;;;;;;;14.10;99.90;;;;;;5102906;28;19920;-80
2022/09/30 00:53:07;;;;;;;;;;;14.10;99.90;;;;;;5108625;28;19967;-79
2022/09/30 00:59:07;;;;;;;;;;;14.10;99.90;;;;;;5094121;28;19930;-80
2022/09/30 01:02:29;;;;;;;;;;;14.20;99.90;;;;;;5109426;28;19961;-80
2022/09/30 01:04:49;;;;;;;;;;;14.10;99.90;;;;;;5095491;28;19915;-80
2022/09/30 01:07:31;;;;;;;;;;;14.20;99.90;;;;;;5102163;28;19912;-81
2022/09/30 01:13:08;;;;;;;;;;;14.40;99.90;;;;;;5034013;28;19933;-80
2022/09/30 01:15:52;;;;;;;;;;;14.50;99.90;;;;;;5113984;28;19919;-79
2022/09/30 01:18:18;;;;;;;;;;;14.50;99.90;;;;;;5109241;28;19910;-80
2022/09/30 01:21:13;;;;;;;;;;;14.40;99.90;;;;;;5115243;28;19924;-81
2022/09/30 01:24:08;;;;;;;;;;;14.30;99.90;;;;;;5104806;28;19962;-83
2022/09/30 01:27:05;;;;;;;;;;;;;;;;;;;;;
2022/09/30 01:29:38;;;;;;;;;;;14.10;99.90;;;;;;5104480;28;19927;-83
2022/09/30 01:32:12;;;;;;;;;;;14.10;99.90;;;;;;5094952;28;19916;-83
2022/09/30 01:34:46;;;;;;;;;;;14.20;99.90;;;;;;5110483;28;19916;-84
2022/09/30 01:37:17;;;;;;;;;;;14.30;99.90;;;;;;5094839;28;19912;-83
2022/09/30 01:39:49;;;;;;;;;;;14.30;99.90;;;;;;5088413;28;19916;-83
2022/09/30 01:42:18;;;;;;;;;;;14.30;99.90;;;;;;5074913;28;19955;-84
2022/09/30 01:44:53;;;;;;;;;;;14.30;99.90;;;;;;5098246;28;19908;-82
2022/09/30 01:47:29;;;;;;;;;;;14.50;99.90;;;;;;5109381;28;19923;-83
2022/09/30 01:50:18;;;;;;;;;;;14.50;99.90;;;;;;5081474;28;20313;-82
2022/09/30 01:53:02;;;;;;;;;;;14.40;99.90;;;;;;5101492;28;19916;-83
2022/09/30 01:55:34;;;;;;;;;;;14.40;99.90;;;;;;5090768;28;19915;-83
2022/09/30 01:58:06;;;;;;;;;;;14.40;99.90;;;;;;5079586;28;19912;-82
2022/09/30 02:00:34;;;;;;;;;;;14.50;99.90;;;;;;5100687;28;19966;-84
2022/09/30 02:03:15;;;;;;;;;;;14.50;99.90;;;;;;5090178;28;19913;-83
2022/09/30 02:05:47;;;;;;;;;;;14.50;99.90;;;;;;5086781;28;19918;-84
2022/09/30 02:08:22;;;;;;;;;;;14.50;99.90;;;;;;5083115;28;19923;-83
2022/09/30 02:11:07;;;;;;;;;;;14.50;99.90;;;;;;5101421;28;19923;-83
2022/09/30 02:16:48;;;;;;;;;;;14.40;99.90;;;;;;5094206;28;19945;-84
2022/09/30 02:19:14;;;;;;;;;;;14.40;99.90;;;;;;5092341;28;19916;-83
2022/09/30 02:21:44;;;;;;;;;;;14.40;99.90;;;;;;5106842;28;19953;-82
2022/09/30 02:24:22;;;;;;;;;;;14.20;99.90;;;;;;5096403;28;19908;-83
2022/09/30 02:26:49;;;;;;;;;;;14.20;99.90;;;;;;5090090;28;19924;-84
2022/09/30 02:29:14;;;;;;;;;;;14.10;99.90;;;;;;5105039;28;19924;-83
2022/09/30 02:31:42;;;;;;;;;;;14.20;99.90;;;;;;5079260;28;19944;-83
2022/09/30 02:34:15;;;;;;;;;;;14.10;99.90;;;;;;5100553;28;19920;-85
2022/09/30 02:36:53;;;;;;;;;;;14.20;99.90;;;;;;5105534;28;19916;-84
2022/09/30 02:39:35;;;;;;;;;;;14.30;99.90;;;;;;5104986;28;19920;-84
2022/09/30 02:42:05;;;;;;;;;;;14.50;99.90;;;;;;5091313;28;19908;-83
2022/09/30 02:44:31;;;;;;;;;;;14.40;99.90;;;;;;5100053;28;19951;-84
2022/09/30 02:50:20;;;;;;;;;;;14.30;99.90;;;;;;5103470;28;19974;-85
2022/09/30 02:53:01;;;;;;;;;;;14.30;99.90;;;;;;5092761;28;19933;-85
2022/09/30 02:55:49;;;;;;;;;;;14.40;99.90;;;;;;5099901;28;19912;-85
2022/09/30 02:58:24;;;;;;;;;;;14.50;99.90;;;;;;5086648;28;20012;-84
2022/09/30 03:00:51;;;;;;;;;;;14.50;99.90;;;;;;5089515;28;19920;-84
2022/09/30 03:03:58;;;;;;;;;;;;;;;;;;;;;
2022/09/30 03:06:45;;;;;;;;;;;14.50;99.90;;;;;;5089057;28;19947;-84
2022/09/30 03:15:40;;;;;;;;;;;14.50;99.90;;;;;;5109265;28;19934;-83
2022/09/30 03:18:51;;;;;;;;;;;14.40;99.90;;;;;;5062752;28;19927;-85
2022/09/30 03:21:49;;;;;;;;;;;;;;;;;;;;;
2022/09/30 03:24:40;;;;;;;;;;;14.50;99.90;;;;;;5101677;28;20539;-84
2022/09/30 03:27:26;;;;;;;;;;;14.50;99.90;;;;;;5090547;28;19908;-84
2022/09/30 03:30:00;;;;;;;;;;;14.50;99.90;;;;;;5098729;28;19924;-84
2022/09/30 03:32:49;;;;;;;;;;;14.50;99.90;;;;;;5080957;28;20026;-84
2022/09/30 03:35:27;;;;;;;;;;;14.50;99.90;;;;;;5088109;28;20181;-85
2022/09/30 03:38:32;;;;;;;;;;;14.50;99.90;;;;;;5093017;28;19983;-85
2022/09/30 03:41:19;;;;;;;;;;;14.50;99.90;;;;;;5016134;28;19909;-85
2022/09/30 03:44:21;;;;;;;;;;;;;;;;;;;;;
2022/09/30 03:50:23;;;;;;;;;;;14.60;99.90;;;;;;5009147;28;19929;-83
2022/09/30 03:53:03;;;;;;;;;;;14.60;99.90;;;;;;5009870;28;19910;-83
2022/09/30 03:56:16;;;;;;;;;;;14.50;99.90;;;;;;5013776;28;19961;-84
2022/09/30 04:02:33;;;;;;;;;;;;;;;;;;;;;
2022/09/30 04:05:28;;;;;;;;;;;;;;;;;;;;;
2022/09/30 04:11:51;;;;;;;;;;;;;;;;;;;;;
2022/09/30 04:17:58;;;;;;;;;;;14.60;99.90;;;;;;4945206;29;19921;-83
2022/09/30 04:33:07;;;;;;;;;;;14.70;99.90;;;;;;4912589;28;19925;-82
2022/09/30 04:38:52;;;;;;;;;;;14.80;99.90;;;;;;4970284;28;19941;-82
2022/09/30 04:42:05;;;;;;;;;;;14.80;99.90;;;;;;5003567;28;19963;-83
2022/09/30 04:45:09;;;;;;;;;;;14.80;99.90;;;;;;4981557;28;19910;-83
2022/09/30 04:54:22;;;;;;;;;;;14.80;99.90;;;;;;4927476;29;19922;-82
2022/09/30 05:00:24;;;;;;;;;;;;;;;;;;;;;
2022/09/30 05:16:36;;;;;;;;;;;15.00;99.90;;;;;;4828769;29;19931;-82
2022/09/30 05:31:25;;;;;;;;;;;15.10;99.90;;;;;;4765171;30;19952;-81
2022/09/30 05:34:17;;;;;;;;;;;15.10;99.90;;;;;;4836246;29;19994;-81
2022/09/30 05:36:46;;;;;;;;;;;15.10;99.90;;;;;;4967313;28;19972;-81
2022/09/30 05:39:13;;;;;;;;;;;15.20;99.90;;;;;;5031742;28;19942;-81
2022/09/30 05:41:38;;;;;;;;;;;15.20;99.90;;;;;;5084422;28;19908;-82
2022/09/30 05:44:07;;;;;;;;;;;15.30;99.90;;;;;;5106498;28;19920;-81
2022/09/30 05:46:39;;;;;;;;;;;15.40;99.90;;;;;;5104505;28;19912;-82
2022/09/30 05:49:07;;;;;;;;;;;15.40;99.90;;;;;;5107182;28;19924;-81
2022/09/30 05:51:38;;;;;;;;;;;15.50;99.90;;;;;;5107645;28;19916;-81
2022/09/30 05:57:23;;;;;;;;;;;15.70;99.90;;;;;;5010304;28;20478;-81
2022/09/30 05:59:52;;;;;;;;;;;15.80;99.90;;;;;;5009493;28;19940;-81
2022/09/30 06:02:17;;;;;;;;;;;15.90;99.90;;;;;;5080939;28;19908;-80
2022/09/30 06:04:43;;;;;;;;;;;16.00;99.90;;;;;;5107207;28;19919;-81
2022/09/30 06:07:12;;;;;;;;;;;16.10;99.90;;;;;;5105548;28;19920;-82
2022/09/30 06:09:38;;;;;;;;;;;16.10;99.90;;;;;;5105154;28;19975;-84
2022/09/30 06:12:05;;;;;;;;;;;16.20;99.90;;;;;;5089951;28;19920;-82
2022/09/30 06:14:31;;;;;;;;;;;16.30;99.90;;;;;;5092033;28;19983;-82
2022/09/30 06:16:59;;;;;;;;;;;16.40;99.90;;;;;;5106479;28;19900;-81
2022/09/30 06:19:26;;;;;;;;;;;16.50;99.90;;;;;;5105944;28;19924;-81
2022/09/30 06:24:57;;;;;;;;;;;16.40;99.90;;;;;;5089188;28;19958;-84
2022/09/30 06:27:23;;;;;;;;;;;16.50;99.90;;;;;;5105275;28;19947;-83
2022/09/30 06:29:49;;;;;;;;;;;16.60;99.90;;;;;;5110497;28;19983;-83
2022/09/30 06:32:16;;;;;;;;;;;16.50;99.90;;;;;;5105055;28;19927;-82
2022/09/30 06:34:41;;;;;;;;;;;16.50;99.90;;;;;;5100753;28;19922;-83
2022/09/30 06:37:07;;;;;;;;;;;16.50;99.90;;;;;;5099985;28;20649;-82
2022/09/30 06:39:33;;;;;;;;;;;16.50;99.90;;;;;;5090686;28;19923;-82
2022/09/30 06:41:58;;;;;;;;;;;16.50;99.90;;;;;;5110797;28;19912;-82
2022/09/30 06:44:27;;;;;;;;;;;16.50;99.90;;;;;;5106239;28;19916;-84
2022/09/30 06:46:53;;;;;;;;;;;16.50;99.90;;;;;;5089229;28;19908;-83
2022/09/30 06:49:27;;;;;;;;;;;16.40;99.90;;;;;;5091776;28;19923;-83
2022/09/30 06:51:53;;;;;;;;;;;16.40;99.90;;;;;;5110910;28;19993;-83
2022/09/30 06:54:22;;;;;;;;;;;16.40;99.90;;;;;;5107526;28;19916;-83
2022/09/30 06:57:01;;;;;;;;;;;16.40;99.90;;;;;;5091874;28;19912;-83
2022/09/30 06:59:27;;;;;;;;;;;16.60;99.90;;;;;;5110366;28;19908;-83
2022/09/30 07:01:54;;;;;;;;;;;16.70;99.90;;;;;;5106959;28;19919;-83
2022/09/30 07:04:20;;;;;;;;;;;16.90;99.90;;;;;;5109824;28;19912;-83
2022/09/30 07:06:51;;;;;;;;;;;17.00;99.90;;;;;;5108093;28;19925;-83
2022/09/30 07:09:17;;;;;;;;;;;17.30;99.90;;;;;;5093854;28;19953;-83
2022/09/30 07:11:43;;;;;;;;;;;17.40;99.90;;;;;;5109628;28;19947;-84
2022/09/30 07:14:12;;;;;;;;;;;17.50;99.90;;;;;;5086498;28;19919;-84
2022/09/30 07:16:38;;;;;;;;;;;17.70;99.90;;;;;;5108668;28;19930;-83
2022/09/30 07:19:06;;;;;;;;;;;17.80;99.90;;;;;;5095164;28;19927;-83
2022/09/30 07:21:32;;;;;;;;;;;17.90;99.90;;;;;;5110753;28;19991;-83
2022/09/30 07:23:59;;;;;;;;;;;18.00;99.90;;;;;;5100606;28;19912;-84
2022/09/30 07:26:27;;;;;;;;;;;18.00;99.90;;;;;;5109284;28;19913;-84
2022/09/30 07:29:22;;;;;;;;;;;18.00;99.90;;;;;;5104946;28;19912;-84
2022/09/30 07:47:49;;;;;;;;;;;18.20;99.90;;;;;;5049151;28;19920;-83
2022/09/30 07:59:47;;;;;;;;;;;18.60;99.90;;;;;;4975662;28;19921;-79
2022/09/30 08:08:52;;;;;;;;;;;18.80;99.90;;;;;;4884375;29;19994;-79
2022/09/30 08:12:22;;;;;;;;;;;18.90;99.90;;;;;;4938964;29;19915;-79
2022/09/30 08:17:48;;;;;;;;;;;;;;;;;;;;;
2022/09/30 08:20:20;;;;;;;;;;;19.20;99.90;;;;;;4909114;29;20013;-79
2022/09/30 08:25:51;;;;;;;;;;;;;;;;;;;;;
2022/09/30 08:28:17;;;;;;;;;;;19.40;99.90;;;;;;5087060;28;20019;-79
2022/09/30 08:34:22;;;;;;;;;;;19.60;99.90;;;;;;5010866;28;19937;-76
2022/09/30 08:43:17;;;;;;;;;;;20.10;99.90;;;;;;4954119;28;20257;-76
2022/09/30 08:49:17;;;;;;;;;;;20.30;99.90;;;;;;4934242;29;19917;-75
2022/09/30 08:55:20;;;;;;;;;;;20.10;99.90;;;;;;5008865;28;19979;-73
2022/09/30 09:01:18;;;;;;;;;;;;;;;;;;;;;
2022/09/30 09:03:54;;;;;;;;;;;19.90;99.90;;;;;;5088101;28;19939;-76
2022/09/30 09:06:27;;;;;;;;;;;19.90;99.90;;;;;;5094502;28;19908;-77
2022/09/30 09:09:33;;;;;;;;;;;20.00;99.90;;;;;;5093490;28;19908;-75
2022/09/30 09:15:11;;;;;;;;;;;19.80;99.90;;;;;;5046070;28;19931;-75
2022/09/30 09:17:57;;;;;;;;;;;19.70;99.90;;;;;;5059808;28;19909;-76
2022/09/30 09:20:45;;;;;;;;;;;19.70;99.90;;;;;;5064912;28;20027;-75
2022/09/30 09:23:30;;;;;;;;;;;19.80;99.90;;;;;;5069094;28;19908;-75
2022/09/30 09:25:59;;;;;;;;;;;19.90;99.90;;;;;;5044803;28;19998;-75
2022/09/30 09:28:32;;;;;;;;;;;19.80;99.90;;;;;;5075705;28;19916;-75
2022/09/30 09:30:59;;;;;;;;;;;19.80;99.90;;;;;;5095685;28;20305;-75
2022/09/30 09:33:48;;;;;;;;;;;19.90;99.90;;;;;;5093220;28;19912;-75
2022/09/30 09:36:13;;;;;;;;;;;19.80;99.90;;;;;;5099021;28;19971;-76
2022/09/30 09:38:39;;;;;;;;;;;19.70;99.90;;;;;;5092200;28;19991;-76
2022/09/30 09:41:05;;;;;;;;;;;19.80;99.90;;;;;;5074929;28;19919;-75
2022/09/30 09:43:42;;;;;;;;;;;20.00;99.90;;;;;;5097572;28;19911;-75
2022/09/30 09:46:16;;;;;;;;;;;19.90;99.90;;;;;;5093834;28;20345;-75
2022/09/30 09:48:43;;;;;;;;;;;20.00;99.90;;;;;;5092580;28;20358;-75
2022/09/30 09:51:26;;;;;;;;;;;20.00;99.90;;;;;;5085842;28;19923;-76
2022/09/30 09:53:52;;;;;;;;;;;20.00;99.90;;;;;;5096166;28;19916;-75
2022/09/30 09:56:19;;;;;;;;;;;20.10;99.90;;;;;;5097088;28;19911;-73
2022/09/30 09:59:14;;;;;;;;;;;20.00;99.90;;;;;;5095074;28;20006;-74
2022/09/30 10:01:55;;;;;;;;;;;20.10;99.90;;;;;;5072796;28;20281;-74
2022/09/30 10:04:31;;;;;;;;;;;20.10;99.90;;;;;;5054897;28;19943;-74
2022/09/30 10:07:12;;;;;;;;;;;20.00;99.90;;;;;;5073757;28;19916;-74
2022/09/30 10:10:02;;;;;;;;;;;19.90;99.90;;;;;;5072916;28;19928;-74
2022/09/30 10:12:56;;;;;;;;;;;;;;;;;;;;;
2022/09/30 10:16:01;;;;;;;;;;;20.00;99.90;;;;;;5042534;28;19919;-73
2022/09/30 10:18:47;;;;;;;;;;;19.90;99.90;;;;;;5031082;28;19909;-74
2022/09/30 10:21:25;;;;;;;;;;;19.80;99.90;;;;;;5082189;28;19919;-74
2022/09/30 10:24:28;;;;;;;;;;;19.90;99.90;;;;;;5079806;28;19912;-73
2022/09/30 10:26:54;;;;;;;;;;;19.90;99.90;;;;;;5090797;28;19908;-73
2022/09/30 10:29:27;;;;;;;;;;;20.00;99.90;;;;;;5093846;28;19912;-73
2022/09/30 10:31:53;;;;;;;;;;;20.10;99.90;;;;;;5092883;28;19990;-74
2022/09/30 10:34:27;;;;;;;;;;;20.30;99.90;;;;;;5093407;28;19935;-74
2022/09/30 10:36:52;;;;;;;;;;;20.40;99.90;;;;;;5093658;28;19914;-74
2022/09/30 10:39:27;;;;;;;;;;;20.60;99.90;;;;;;5075568;28;19908;-74
2022/09/30 10:42:11;;;;;;;;;;;20.80;99.90;;;;;;5097066;28;19908;-74
2022/09/30 10:45:08;;;;;;;;;;;21.00;99.90;;;;;;5097029;28;20007;-74
2022/09/30 10:47:46;;;;;;;;;;;21.20;99.90;;;;;;5080264;28;19962;-74
2022/09/30 10:50:16;;;;;;;;;;;21.40;99.90;;;;;;5096183;28;19916;-74
2022/09/30 10:53:02;;;;;;;;;;;21.60;99.90;;;;;;5096879;28;19937;-74
2022/09/30 10:55:32;;;;;;;;;;;21.80;99.90;;;;;;5077097;28;19908;-73
2022/09/30 10:58:18;;;;;;;;;;;22.00;99.90;;;;;;5076380;28;19908;-73
2022/09/30 11:00:44;;;;;;;;;;;22.00;99.90;;;;;;5050746;28;20332;-74
2022/09/30 11:03:14;;;;;;;;;;;22.10;99.90;;;;;;5075667;28;19961;-74
2022/09/30 11:06:11;;;;;;;;;;;;;;;;;;;;;
2022/09/30 11:09:10;;;;;;;;;;;21.90;99.90;;;;;;5091593;28;19981;-74
2022/09/30 11:12:01;;;;;;;;;;;21.80;99.90;;;;;;5090516;28;20255;-74
2022/09/30 11:15:08;;;;;;;;;;;21.70;99.90;;;;;;5086891;28;19908;-74
2022/09/30 11:17:56;;;;;;;;;;;21.60;99.90;;;;;;5094966;28;19952;-74
2022/09/30 11:20:57;;;;;;;;;;;21.60;99.90;;;;;;5066103;28;19912;-74
2022/09/30 11:23:37;;;;;;;;;;;21.60;99.90;;;;;;5063565;28;19912;-74
2022/09/30 11:26:05;;;;;;;;;;;21.60;99.90;;;;;;5095394;28;19908;-74
2022/09/30 11:29:02;;;;;;;;;;;;;;;;;;;;;
2022/09/30 11:31:47;;;;;;;;;;;21.70;99.90;;;;;;5089433;28;19916;-74
2022/09/30 11:37:23;;;;;;;;;;;21.70;99.90;;;;;;5059576;28;19923;-74
2022/09/30 11:39:57;;;;;;;;;;;21.60;99.90;;;;;;5093684;28;20308;-74
2022/09/30 11:42:26;;;;;;;;;;;21.70;99.90;;;;;;5088216;28;20011;-74
2022/09/30 11:45:00;;;;;;;;;;;21.80;99.90;;;;;;5079330;28;20278;-74
2022/09/30 11:47:28;;;;;;;;;;;22.00;99.90;;;;;;5092873;28;20335;-74
2022/09/30 11:50:13;;;;;;;;;;;22.10;99.90;;;;;;5093812;28;19923;-74
2022/09/30 11:52:59;;;;;;;;;;;22.20;99.90;;;;;;5090316;28;20196;-73
2022/09/30 11:55:40;;;;;;;;;;;22.40;99.90;;;;;;5088236;28;19919;-73
2022/09/30 11:58:09;;;;;;;;;;;22.50;99.90;;;;;;5092392;28;20398;-74
2022/09/30 12:00:39;;;;;;;;;;;22.50;99.90;;;;;;5086616;28;20400;-74
2022/09/30 12:03:13;;;;;;;;;;;22.30;99.90;;;;;;5087926;28;20378;-73
2022/09/30 12:05:40;;;;;;;;;;;21.90;99.90;;;;;;5094472;28;19912;-73
2022/09/30 12:08:15;;;;;;;;;;;21.50;99.90;;;;;;5091810;28;19919;-73
2022/09/30 12:10:46;;;;;;;;;;;21.10;99.90;;;;;;5089177;28;19922;-73
2022/09/30 12:13:24;;;;;;;;;;;20.80;99.90;;;;;;5074864;28;19919;-73
2022/09/30 12:15:50;;;;;;;;;;;20.60;99.90;;;;;;5091170;28;19930;-73
2022/09/30 12:18:20;;;;;;;;;;;20.50;99.90;;;;;;5075125;28;19955;-73
2022/09/30 12:20:51;;;;;;;;;;;20.50;99.90;;;;;;5080222;28;19912;-73
2022/09/30 12:23:38;;;;;;;;;;;20.50;99.90;;;;;;5087612;28;19974;-74
2022/09/30 12:32:21;;;;;;;;;;;20.10;99.90;;;;;;5084747;28;19919;-74
2022/09/30 12:35:00;;;;;;;;;;;20.00;99.90;;;;;;5092529;28;19969;-74
2022/09/30 12:37:56;;;;;;;;;;;19.90;99.90;;;;;;5085545;28;20278;-73
2022/09/30 12:40:35;;;;;;;;;;;19.80;99.90;;;;;;5068744;28;20327;-74
2022/09/30 12:46:35;;;;;;;;;;;19.80;99.90;;;;;;5014693;28;20002;-74
2022/09/30 12:49:06;;;;;;;;;;;19.80;99.90;;;;;;5031136;28;19963;-74
2022/09/30 12:51:40;;;;;;;;;;;19.70;99.90;;;;;;5030127;28;20383;-74
2022/09/30 12:54:15;;;;;;;;;;;19.60;99.90;;;;;;5029406;28;19947;-73
2022/09/30 12:56:41;;;;;;;;;;;19.50;99.90;;;;;;5045607;28;19912;-74
2022/09/30 12:59:08;;;;;;;;;;;19.50;99.90;;;;;;5091612;28;19919;-74
2022/09/30 13:01:38;;;;;;;;;;;19.50;99.90;;;;;;5092908;28;20523;-73
2022/09/30 13:04:04;;;;;;;;;;;19.40;99.90;;;;;;5093271;28;19983;-73
2022/09/30 13:06:57;;;;;;;;;;;19.40;99.90;;;;;;5088011;28;19969;-73
2022/09/30 13:09:53;;;;;;;;;;;19.40;99.90;;;;;;5084851;28;20405;-74
2022/09/30 13:12:39;;;;;;;;;;;19.40;99.90;;;;;;5002085;28;19921;-73
2022/09/30 13:16:09;;;;;;;;;;;19.40;99.90;;;;;;5091981;28;19976;-73
2022/09/30 13:18:25;;;;;;;;;;;19.40;99.90;;;;;;5078971;28;19987;-73
2022/09/30 13:20:56;;;;;;;;;;;19.30;99.90;;;;;;5092309;28;20014;-75
2022/09/30 13:23:40;;;;;;;;;;;19.30;99.90;;;;;;5090622;28;19920;-74
2022/09/30 13:29:38;;;;;;;;;;;19.40;99.90;;;;;;5089608;28;19918;-74
2022/09/30 13:32:04;;;;;;;;;;;19.30;99.90;;;;;;5087562;28;19924;-74
2022/09/30 13:34:32;;;;;;;;;;;19.20;99.90;;;;;;5071786;28;19912;-74
2022/09/30 13:37:12;;;;;;;;;;;19.20;99.90;;;;;;5085552;28;19912;-74
2022/09/30 13:40:13;;;;;;;;;;;19.10;99.90;;;;;;5085517;28;19920;-73
2022/09/30 13:42:44;;;;;;;;;;;19.10;99.90;;;;;;5049005;28;19912;-74
2022/09/30 13:45:28;;;;;;;;;;;19.00;99.90;;;;;;5065625;28;20611;-75
2022/09/30 13:48:09;;;;;;;;;;;19.00;99.90;;;;;;5082536;28;19917;-74
2022/09/30 13:50:46;;;;;;;;;;;18.90;99.90;;;;;;5074606;28;19919;-74
2022/09/30 13:53:32;;;;;;;;;;;18.90;99.90;;;;;;5073486;28;19909;-74
2022/09/30 13:56:00;;;;;;;;;;;18.90;99.90;;;;;;5088982;28;20365;-74
2022/09/30 13:58:35;;;;;;;;;;;18.80;99.90;;;;;;5089998;28;19916;-73
2022/09/30 14:01:17;;;;;;;;;;;18.70;99.90;;;;;;5084459;28;19908;-74
2022/09/30 14:04:02;;;;;;;;;;;18.70;99.90;;;;;;5093558;28;19974;-73
2022/09/30 14:06:44;;;;;;;;;;;18.60;99.90;;;;;;5092672;28;19912;-73
2022/09/30 14:09:28;;;;;;;;;;;18.50;99.90;;;;;;5101805;28;20305;-74
2022/09/30 14:12:13;;;;;;;;;;;18.50;99.90;;;;;;5092811;28;19916;-73
2022/09/30 14:14:47;;;;;;;;;;;18.30;99.90;;;;;;5071396;28;19923;-72
2022/09/30 14:17:33;;;;;;;;;;;18.20;99.90;;;;;;5107081;28;19912;-73
2022/09/30 14:20:14;;;;;;;;;;;18.10;99.90;;;;;;5114731;28;20364;-73
2022/09/30 14:22:49;;;;;;;;;;;18.10;99.90;;;;;;5113569;28;21272;-72
2022/09/30 14:25:19;;;;;;;;;;;18.00;99.90;;;;;;5085691;28;20280;-73
2022/09/30 14:28:02;;;;;;;;;;;17.90;99.90;;;;;;5103692;28;19915;-74
2022/09/30 14:30:30;;;;;;;;;;;17.90;99.90;;;;;;5106451;28;19988;-74
2022/09/30 14:33:00;;;;;;;;;;;17.80;99.90;;;;;;5090030;28;20318;-74
2022/09/30 14:35:28;;;;;;;;;;;17.70;99.90;;;;;;5098606;28;19947;-72
2022/09/30 14:37:57;;;;;;;;;;;17.70;99.90;;;;;;5076164;28;19955;-73
2022/09/30 14:40:27;;;;;;;;;;;17.60;99.90;;;;;;5095325;28;19912;-73
2022/09/30 14:42:54;;;;;;;;;;;17.50;99.90;;;;;;5099464;28;20008;-73
2022/09/30 14:45:27;;;;;;;;;;;17.40;99.90;;;;;;5088840;28;19912;-73
2022/09/30 14:47:56;;;;;;;;;;;17.30;99.90;;;;;;5091357;28;19923;-72
2022/09/30 14:50:25;;;;;;;;;;;17.30;99.90;;;;;;5090036;28;19923;-73
2022/09/30 14:52:59;;;;;;;;;;;17.30;99.90;;;;;;5075840;28;20073;-73
2022/09/30 14:55:30;;;;;;;;;;;17.30;99.90;;;;;;5093554;28;20357;-73
2022/09/30 14:58:20;;;;;;;;;;;17.40;99.90;;;;;;5095680;28;19918;-72
2022/09/30 15:01:06;;;;;;;;;;;17.40;99.90;;;;;;5067817;28;19912;-73
2022/09/30 15:03:33;;;;;;;;;;;17.40;99.90;;;;;;5090416;28;19912;-73
2022/09/30 15:06:02;;;;;;;;;;;17.40;99.90;;;;;;5093123;28;20366;-74
2022/09/30 15:08:28;;;;;;;;;;;17.40;99.90;;;;;;5073864;28;19993;-73
2022/09/30 15:10:55;;;;;;;;;;;17.40;99.90;;;;;;5091830;28;19916;-73
2022/09/30 15:13:22;;;;;;;;;;;17.40;99.90;;;;;;5095067;28;19973;-73
2022/09/30 15:15:57;;;;;;;;;;;17.40;99.90;;;;;;5094459;28;19918;-73
2022/09/30 15:18:31;;;;;;;;;;;17.40;99.90;;;;;;5083729;28;20386;-75
2022/09/30 15:21:07;;;;;;;;;;;17.30;99.90;;;;;;5091290;28;19985;-72
2022/09/30 15:23:35;;;;;;;;;;;17.30;99.90;;;;;;5073748;28;20335;-73
2022/09/30 15:26:00;;;;;;;;;;;17.30;99.90;;;;;;5080328;28;19965;-74
2022/09/30 15:28:29;;;;;;;;;;;17.20;99.90;;;;;;5091031;28;19916;-74
2022/09/30 15:31:00;;;;;;;;;;;17.20;99.90;;;;;;5092777;28;19962;-72
2022/09/30 15:33:31;;;;;;;;;;;17.20;99.90;;;;;;5072784;28;20305;-74
2022/09/30 15:36:04;;;;;;;;;;;17.20;99.90;;;;;;5088356;28;20388;-72
2022/09/30 15:38:32;;;;;;;;;;;17.20;99.90;;;;;;5093900;28;20618;-73
2022/09/30 15:41:03;;;;;;;;;;;17.10;99.90;;;;;;5088568;28;19978;-73
2022/09/30 15:43:31;;;;;;;;;;;17.10;99.90;;;;;;5087296;28;20010;-73
2022/09/30 15:46:14;;;;;;;;;;;17.10;99.90;;;;;;5081011;28;19912;-73
2022/09/30 15:48:43;;;;;;;;;;;17.00;99.90;;;;;;5094196;28;19916;-72
2022/09/30 15:51:21;;;;;;;;;;;17.00;99.90;;;;;;5089128;28;19923;-74
2022/09/30 15:53:47;;;;;;;;;;;16.90;99.90;;;;;;5085709;28;19912;-73
2022/09/30 15:56:19;;;;;;;;;;;16.90;99.90;;;;;;5078336;28;20285;-74
2022/09/30 15:58:55;;;;;;;;;;;16.80;99.90;;;;;;5080891;28;20601;-74
2022/09/30 16:01:26;;;;;;;;;;;16.70;99.90;;;;;;5086567;28;20330;-74
2022/09/30 16:03:56;;;;;;;;;;;16.60;99.90;;;;;;5088849;28;19918;-74
2022/09/30 16:06:24;;;;;;;;;;;16.60;99.90;;;;;;5094559;28;19912;-74
2022/09/30 16:09:01;;;;;;;;;;;16.60;99.90;;;;;;5097569;28;19989;-73
2022/09/30 16:11:33;;;;;;;;;;;16.60;99.90;;;;;;5075309;28;19916;-73
2022/09/30 16:14:00;;;;;;;;;;;16.50;99.90;;;;;;5076907;28;19981;-74
2022/09/30 16:16:27;;;;;;;;;;;16.40;99.90;;;;;;5105602;28;19916;-73
2022/09/30 16:18:53;;;;;;;;;;;16.40;99.90;;;;;;5097355;28;20067;-73
2022/09/30 16:21:42;;;;;;;;;;;16.40;99.90;;;;;;5076029;28;19923;-72
2022/09/30 16:24:23;;;;;;;;;;;16.50;99.90;;;;;;5095865;28;19912;-72
2022/09/30 16:26:52;;;;;;;;;;;16.50;99.90;;;;;;5090889;28;19916;-74
2022/09/30 16:29:18;;;;;;;;;;;16.40;99.90;;;;;;5083011;28;19912;-73
2022/09/30 16:31:45;;;;;;;;;;;16.30;99.90;;;;;;5085517;28;20427;-73
2022/09/30 16:34:18;;;;;;;;;;;16.30;99.90;;;;;;5091512;28;21582;-72
2022/09/30 16:36:43;;;;;;;;;;;16.40;99.90;;;;;;5089474;28;19912;-75
2022/09/30 16:39:12;;;;;;;;;;;16.30;99.90;;;;;;5087608;28;20369;-75
2022/09/30 16:41:37;;;;;;;;;;;16.30;99.90;;;;;;5086428;28;19916;-73
2022/09/30 16:44:03;;;;;;;;;;;16.30;99.90;;;;;;5087475;28;19920;-73
2022/09/30 16:46:29;;;;;;;;;;;16.20;99.90;;;;;;5086166;28;19958;-73
2022/09/30 16:48:58;;;;;;;;;;;16.20;99.90;;;;;;5087034;28;19988;-74
2022/09/30 16:51:24;;;;;;;;;;;16.20;99.90;;;;;;5088330;28;19924;-74
2022/09/30 16:53:50;;;;;;;;;;;16.20;99.90;;;;;;5092902;28;20072;-73
2022/09/30 16:56:17;;;;;;;;;;;16.20;99.90;;;;;;5092067;28;19912;-73
2022/09/30 16:58:45;;;;;;;;;;;16.20;99.90;;;;;;5091751;28;19935;-74
2022/09/30 17:01:21;;;;;;;;;;;16.10;99.90;;;;;;5087646;28;19919;-75
2022/09/30 17:03:47;;;;;;;;;;;16.20;99.90;;;;;;5072202;28;20277;-72
2022/09/30 17:06:17;;;;;;;;;;;16.30;99.90;;;;;;5091945;28;19956;-72
2022/09/30 17:08:44;;;;;;;;;;;16.30;99.90;;;;;;5091817;28;19919;-74
2022/09/30 17:11:09;;;;;;;;;;;16.30;99.90;;;;;;5089750;28;19924;-73
2022/09/30 17:13:36;;;;;;;;;;;16.40;99.90;;;;;;5093149;28;19985;-73
2022/09/30 17:16:04;;;;;;;;;;;16.30;99.90;;;;;;5098307;28;19919;-74
2022/09/30 17:18:30;;;;;;;;;;;16.30;99.90;;;;;;5088828;28;19990;-73
2022/09/30 17:20:56;;;;;;;;;;;16.30;99.90;;;;;;5071636;28;20034;-72
2022/09/30 17:23:23;;;;;;;;;;;16.30;99.90;;;;;;5090386;28;19912;-74
2022/09/30 17:25:49;;;;;;;;;;;16.30;99.90;;;;;;5089734;28;19916;-75
2022/09/30 17:28:15;;;;;;;;;;;16.30;99.90;;;;;;5085595;28;19916;-73
2022/09/30 17:30:42;;;;;;;;;;;16.30;99.90;;;;;;5094387;28;19916;-73
2022/09/30 17:33:11;;;;;;;;;;;16.40;99.90;;;;;;5086958;28;19916;-77
2022/09/30 17:35:37;;;;;;;;;;;16.30;99.90;;;;;;5091024;28;19927;-81
2022/09/30 17:38:10;;;;;;;;;;;16.30;99.90;;;;;;5086926;28;19913;-82
2022/09/30 17:43:20;;;;;;;;;;;16.50;99.90;;;;;;5101399;28;19920;-82
2022/09/30 17:45:49;;;;;;;;;;;16.60;99.90;;;;;;5114885;28;19904;-80
2022/09/30 17:48:16;;;;;;;;;;;16.60;99.90;;;;;;5115058;28;19983;-80
2022/09/30 17:50:46;;;;;;;;;;;16.60;99.90;;;;;;5101323;28;19927;-80
2022/09/30 17:53:13;;;;;;;;;;;16.60;99.90;;;;;;5117222;28;19961;-81
2022/09/30 17:55:39;;;;;;;;;;;16.70;99.90;;;;;;5095882;28;20590;-83
2022/09/30 17:58:06;;;;;;;;;;;16.60;99.90;;;;;;5104563;28;19958;-84
2022/09/30 18:00:33;;;;;;;;;;;16.50;99.90;;;;;;5100947;28;19912;-83
2022/09/30 18:02:59;;;;;;;;;;;16.50;99.90;;;;;;5110010;28;19916;-82
2022/09/30 18:05:26;;;;;;;;;;;16.50;99.90;;;;;;5108809;28;19912;-82
2022/09/30 18:07:52;;;;;;;;;;;16.50;99.90;;;;;;5108939;28;19968;-82
2022/09/30 18:10:17;;;;;;;;;;;16.50;99.90;;;;;;5121942;28;19920;-80
2022/09/30 18:12:46;;;;;;;;;;;16.40;99.90;;;;;;5117667;28;19924;-82
2022/09/30 18:15:12;;;;;;;;;;;16.40;99.90;;;;;;5107760;28;20053;-81
2022/09/30 18:17:37;;;;;;;;;;;16.40;99.90;;;;;;5123718;28;19908;-83
2022/09/30 18:20:04;;;;;;;;;;;16.50;99.90;;;;;;5122064;28;19920;-82
2022/09/30 18:22:31;;;;;;;;;;;16.60;99.90;;;;;;5085240;28;19919;-82
2022/09/30 18:27:41;;;;;;;;;;;16.50;99.90;;;;;;5115964;28;20006;-82